Weather at Falmouth Airpark

Public forecast

Using degrees Fahrenheit for public forecast. Weather courtesy of forecast.io.

Closest aviation weather report (METAR) to Falmouth Airpark

Closest report is Cape Cod Coast Guard Air Station, 4.4 nm (8.2 km) N. Retrieved 2021/12/08 12:45 UTC (28 minutes ago):

KFMH 081245Z 36003KT 10SM CLR 01/M03 A3014

Closest aviation forecast (TAF) to Falmouth Airpark

Closest forecast is Cape Cod Coast Guard Air Station, 4.4 nm (8.2 km) N. Retrieved 2021/12/08 12:22 UTC (51 minutes ago):

TAF KFMH 081120Z 0812/0912 00000KT P6SM OVC100 FM081800 11005KT P6SM VCSH OVC060 FM090200 02004KT 6SM -RA BR OVC012 FM090500 34007KT 3SM -SN BR OVC011 FM090900 32010G21KT P6SM VCSH OVC024 FM091100 32009KT P6SM BKN070